sensor_id;sensor_type;location;lat;lon;timestamp;temperature;humidity
2489;DHT22;1255;48.716;9.124;2023-01-15T00:01:26;9.10;99.90
2489;DHT22;1255;48.716;9.124;2023-01-15T00:03:56;9.10;99.90
2489;DHT22;1255;48.716;9.124;2023-01-15T00:06:24;9.10;99.90
2489;DHT22;1255;48.716;9.124;2023-01-15T00:08:51;9.10;99.90
2489;DHT22;1255;48.716;9.124;2023-01-15T00:11:19;9.10;99.90
2489;DHT22;1255;48.716;9.124;2023-01-15T00:13:46;9.10;99.90
2489;DHT22;1255;48.716;9.124;2023-01-15T00:16:16;9.20;99.90
2489;DHT22;1255;48.716;9.124;2023-01-15T00:18:43;9.10;99.90
2489;DHT22;1255;48.716;9.124;2023-01-15T00:21:11;9.20;99.90
2489;DHT22;1255;48.716;9.124;2023-01-15T00:23:38;9.20;99.90
2489;DHT22;1255;48.716;9.124;2023-01-15T00:26:26;9.20;99.90
2489;DHT22;1255;48.716;9.124;2023-01-15T00:29:11;9.20;99.90
2489;DHT22;1255;48.716;9.124;2023-01-15T00:31:38;9.20;99.90
2489;DHT22;1255;48.716;9.124;2023-01-15T00:34:05;9.20;99.90
2489;DHT22;1255;48.716;9.124;2023-01-15T00:36:34;9.20;99.90
2489;DHT22;1255;48.716;9.124;2023-01-15T00:39:02;9.20;99.90
2489;DHT22;1255;48.716;9.124;2023-01-15T00:41:29;9.20;99.90
2489;DHT22;1255;48.716;9.124;2023-01-15T00:43:56;9.30;99.90
2489;DHT22;1255;48.716;9.124;2023-01-15T00:46:22;9.30;99.90
2489;DHT22;1255;48.716;9.124;2023-01-15T00:48:49;9.20;99.90
2489;DHT22;1255;48.716;9.124;2023-01-15T00:51:16;9.30;99.90
2489;DHT22;1255;48.716;9.124;2023-01-15T00:53:44;9.30;99.90
2489;DHT22;1255;48.716;9.124;2023-01-15T00:56:11;9.30;99.90
2489;DHT22;1255;48.716;9.124;2023-01-15T00:58:37;9.40;99.90
2489;DHT22;1255;48.716;9.124;2023-01-15T01:01:04;9.40;99.90
2489;DHT22;1255;48.716;9.124;2023-01-15T01:03:31;9.40;99.90
2489;DHT22;1255;48.716;9.124;2023-01-15T01:05:59;9.30;99.90
2489;DHT22;1255;48.716;9.124;2023-01-15T01:08:27;9.40;99.90
2489;DHT22;1255;48.716;9.124;2023-01-15T01:11:05;9.40;99.90
2489;DHT22;1255;48.716;9.124;2023-01-15T01:13:32;9.40;99.90
2489;DHT22;1255;48.716;9.124;2023-01-15T01:16:00;9.40;99.90
2489;DHT22;1255;48.716;9.124;2023-01-15T01:18:27;9.40;99.90
2489;DHT22;1255;48.716;9.124;2023-01-15T01:20:54;9.40;99.90
2489;DHT22;1255;48.716;9.124;2023-01-15T01:23:22;9.30;99.90
2489;DHT22;1255;48.716;9.124;2023-01-15T01:25:49;9.30;99.90
2489;DHT22;1255;48.716;9.124;2023-01-15T01:28:17;9.30;99.90
2489;DHT22;1255;48.716;9.124;2023-01-15T01:30:43;9.30;99.90
2489;DHT22;1255;48.716;9.124;2023-01-15T01:33:10;9.40;99.90
2489;DHT22;1255;48.716;9.124;2023-01-15T01:35:37;9.40;99.90
2489;DHT22;1255;48.716;9.124;2023-01-15T01:38:03;9.40;99.90
2489;DHT22;1255;48.716;9.124;2023-01-15T01:40:30;9.40;99.90
2489;DHT22;1255;48.716;9.124;2023-01-15T01:42:57;9.40;99.90
2489;DHT22;1255;48.716;9.124;2023-01-15T01:45:27;9.40;99.90
2489;DHT22;1255;48.716;9.124;2023-01-15T01:47:57;9.40;99.90
2489;DHT22;1255;48.716;9.124;2023-01-15T01:50:25;9.40;99.90
2489;DHT22;1255;48.716;9.124;2023-01-15T01:52:56;9.40;99.90
2489;DHT22;1255;48.716;9.124;2023-01-15T01:55:25;9.40;99.90
2489;DHT22;1255;48.716;9.124;2023-01-15T01:57:56;9.40;99.90
2489;DHT22;1255;48.716;9.124;2023-01-15T02:00:27;9.40;99.90
2489;DHT22;1255;48.716;9.124;2023-01-15T02:02:55;9.40;99.90
2489;DHT22;1255;48.716;9.124;2023-01-15T02:05:27;9.40;99.90
2489;DHT22;1255;48.716;9.124;2023-01-15T02:07:55;9.40;99.90
2489;DHT22;1255;48.716;9.124;2023-01-15T02:10:22;9.40;99.90
2489;DHT22;1255;48.716;9.124;2023-01-15T02:12:54;9.40;99.90
2489;DHT22;1255;48.716;9.124;2023-01-15T02:15:27;9.40;99.90
2489;DHT22;1255;48.716;9.124;2023-01-15T02:18:01;9.40;99.90
2489;DHT22;1255;48.716;9.124;2023-01-15T02:20:35;9.40;99.90
2489;DHT22;1255;48.716;9.124;2023-01-15T02:23:14;9.40;99.90
2489;DHT22;1255;48.716;9.124;2023-01-15T02:26:03;9.40;99.90
2489;DHT22;1255;48.716;9.124;2023-01-15T02:28:36;9.50;99.90
2489;DHT22;1255;48.716;9.124;2023-01-15T02:31:08;9.50;99.90
2489;DHT22;1255;48.716;9.124;2023-01-15T02:33:39;9.50;99.90
2489;DHT22;1255;48.716;9.124;2023-01-15T02:36:09;9.60;99.90
2489;DHT22;1255;48.716;9.124;2023-01-15T02:38:39;9.60;99.90
2489;DHT22;1255;48.716;9.124;2023-01-15T02:41:08;9.60;99.90
2489;DHT22;1255;48.716;9.124;2023-01-15T02:43:43;9.60;99.90
2489;DHT22;1255;48.716;9.124;2023-01-15T02:46:13;9.60;99.90
2489;DHT22;1255;48.716;9.124;2023-01-15T02:48:41;9.60;99.90
2489;DHT22;1255;48.716;9.124;2023-01-15T02:51:14;9.70;99.90
2489;DHT22;1255;48.716;9.124;2023-01-15T02:53:43;9.70;99.90
2489;DHT22;1255;48.716;9.124;2023-01-15T02:56:13;9.70;99.90
2489;DHT22;1255;48.716;9.124;2023-01-15T02:58:43;9.70;99.90
2489;DHT22;1255;48.716;9.124;2023-01-15T03:01:13;9.70;99.90
2489;DHT22;1255;48.716;9.124;2023-01-15T03:03:45;9.70;99.90
2489;DHT22;1255;48.716;9.124;2023-01-15T03:06:17;9.70;99.90
2489;DHT22;1255;48.716;9.124;2023-01-15T03:08:45;9.80;99.90
2489;DHT22;1255;48.716;9.124;2023-01-15T03:11:13;9.80;99.90
2489;DHT22;1255;48.716;9.124;2023-01-15T03:13:46;9.80;99.90
2489;DHT22;1255;48.716;9.124;2023-01-15T03:16:17;9.80;99.90
2489;DHT22;1255;48.716;9.124;2023-01-15T03:19:08;9.80;99.90
2489;DHT22;1255;48.716;9.124;2023-01-15T03:21:44;9.80;99.90
2489;DHT22;1255;48.716;9.124;2023-01-15T03:24:13;9.90;99.90
2489;DHT22;1255;48.716;9.124;2023-01-15T03:26:40;10.00;99.90
2489;DHT22;1255;48.716;9.124;2023-01-15T03:29:09;10.10;99.90
2489;DHT22;1255;48.716;9.124;2023-01-15T03:31:36;10.10;99.90
2489;DHT22;1255;48.716;9.124;2023-01-15T03:34:03;10.10;99.90
2489;DHT22;1255;48.716;9.124;2023-01-15T03:36:31;10.30;99.90
2489;DHT22;1255;48.716;9.124;2023-01-15T03:38:58;10.40;99.90
2489;DHT22;1255;48.716;9.124;2023-01-15T03:41:30;10.40;99.90
2489;DHT22;1255;48.716;9.124;2023-01-15T03:44:10;10.50;99.90
2489;DHT22;1255;48.716;9.124;2023-01-15T03:46:54;10.50;99.90
2489;DHT22;1255;48.716;9.124;2023-01-15T03:49:29;10.50;99.90
2489;DHT22;1255;48.716;9.124;2023-01-15T03:52:01;10.60;99.90
2489;DHT22;1255;48.716;9.124;2023-01-15T03:54:36;10.60;99.90
2489;DHT22;1255;48.716;9.124;2023-01-15T03:57:12;10.60;99.90
2489;DHT22;1255;48.716;9.124;2023-01-15T03:59:46;10.70;99.90
2489;DHT22;1255;48.716;9.124;2023-01-15T04:02:15;10.70;99.90
2489;DHT22;1255;48.716;9.124;2023-01-15T04:04:45;10.70;99.90
2489;DHT22;1255;48.716;9.124;2023-01-15T04:07:12;10.80;99.90
2489;DHT22;1255;48.716;9.124;2023-01-15T04:09:40;10.90;99.90
2489;DHT22;1255;48.716;9.124;2023-01-15T04:12:07;10.80;99.90
2489;DHT22;1255;48.716;9.124;2023-01-15T04:14:34;10.90;99.90
2489;DHT22;1255;48.716;9.124;2023-01-15T04:17:02;10.80;99.90
2489;DHT22;1255;48.716;9.124;2023-01-15T04:19:29;10.80;99.90
2489;DHT22;1255;48.716;9.124;2023-01-15T04:21:55;10.80;99.90
2489;DHT22;1255;48.716;9.124;2023-01-15T04:24:22;10.70;99.90
2489;DHT22;1255;48.716;9.124;2023-01-15T04:26:49;10.70;99.90
2489;DHT22;1255;48.716;9.124;2023-01-15T04:29:15;10.70;99.90
2489;DHT22;1255;48.716;9.124;2023-01-15T04:31:42;10.60;99.90
2489;DHT22;1255;48.716;9.124;2023-01-15T04:34:10;10.60;99.90
2489;DHT22;1255;48.716;9.124;2023-01-15T04:36:37;10.60;99.90
2489;DHT22;1255;48.716;9.124;2023-01-15T04:39:04;10.60;99.90
2489;DHT22;1255;48.716;9.124;2023-01-15T04:41:31;10.50;99.90
2489;DHT22;1255;48.716;9.124;2023-01-15T04:44:15;10.50;99.90
2489;DHT22;1255;48.716;9.124;2023-01-15T04:46:43;10.50;99.90
2489;DHT22;1255;48.716;9.124;2023-01-15T04:49:14;10.50;99.90
2489;DHT22;1255;48.716;9.124;2023-01-15T04:51:41;10.50;99.90
2489;DHT22;1255;48.716;9.124;2023-01-15T04:54:09;10.50;99.90
2489;DHT22;1255;48.716;9.124;2023-01-15T04:56:38;10.50;99.90
2489;DHT22;1255;48.716;9.124;2023-01-15T04:59:05;10.50;99.90
2489;DHT22;1255;48.716;9.124;2023-01-15T05:01:32;10.50;99.90
2489;DHT22;1255;48.716;9.124;2023-01-15T05:04:00;10.40;99.90
2489;DHT22;1255;48.716;9.124;2023-01-15T05:06:28;10.50;99.90
2489;DHT22;1255;48.716;9.124;2023-01-15T05:08:56;10.50;99.90
2489;DHT22;1255;48.716;9.124;2023-01-15T05:11:23;10.50;99.90
2489;DHT22;1255;48.716;9.124;2023-01-15T05:13:50;10.50;99.90
2489;DHT22;1255;48.716;9.124;2023-01-15T05:16:18;10.50;99.90
2489;DHT22;1255;48.716;9.124;2023-01-15T05:18:46;10.50;99.90
2489;DHT22;1255;48.716;9.124;2023-01-15T05:21:14;10.50;99.90
2489;DHT22;1255;48.716;9.124;2023-01-15T05:23:44;10.50;99.90
2489;DHT22;1255;48.716;9.124;2023-01-15T05:26:11;10.60;99.90
2489;DHT22;1255;48.716;9.124;2023-01-15T05:28:37;10.60;99.90
2489;DHT22;1255;48.716;9.124;2023-01-15T05:31:06;10.60;99.90
2489;DHT22;1255;48.716;9.124;2023-01-15T05:33:33;10.60;99.90
2489;DHT22;1255;48.716;9.124;2023-01-15T05:36:01;10.70;99.90
2489;DHT22;1255;48.716;9.124;2023-01-15T05:38:28;10.50;99.90
2489;DHT22;1255;48.716;9.124;2023-01-15T05:40:56;10.10;99.90
2489;DHT22;1255;48.716;9.124;2023-01-15T05:43:23;9.60;99.90
2489;DHT22;1255;48.716;9.124;2023-01-15T05:45:50;9.20;99.90
2489;DHT22;1255;48.716;9.124;2023-01-15T05:48:16;8.90;99.90
2489;DHT22;1255;48.716;9.124;2023-01-15T05:50:43;8.60;99.90
2489;DHT22;1255;48.716;9.124;2023-01-15T05:53:10;8.40;99.90
2489;DHT22;1255;48.716;9.124;2023-01-15T05:55:36;8.20;99.90
2489;DHT22;1255;48.716;9.124;2023-01-15T05:58:04;8.10;99.90
2489;DHT22;1255;48.716;9.124;2023-01-15T06:00:31;7.90;99.90
2489;DHT22;1255;48.716;9.124;2023-01-15T06:02:58;7.80;99.90
2489;DHT22;1255;48.716;9.124;2023-01-15T06:05:24;7.70;99.90
2489;DHT22;1255;48.716;9.124;2023-01-15T06:07:51;7.60;99.90
2489;DHT22;1255;48.716;9.124;2023-01-15T06:10:18;7.60;99.90
2489;DHT22;1255;48.716;9.124;2023-01-15T06:12:45;7.40;99.90
2489;DHT22;1255;48.716;9.124;2023-01-15T06:15:13;7.40;99.90
2489;DHT22;1255;48.716;9.124;2023-01-15T06:17:39;7.30;99.90
2489;DHT22;1255;48.716;9.124;2023-01-15T06:20:07;7.30;99.90
2489;DHT22;1255;48.716;9.124;2023-01-15T06:22:34;7.30;99.90
2489;DHT22;1255;48.716;9.124;2023-01-15T06:25:03;7.20;99.90
2489;DHT22;1255;48.716;9.124;2023-01-15T06:27:30;7.20;99.90
2489;DHT22;1255;48.716;9.124;2023-01-15T06:29:57;7.10;99.90
2489;DHT22;1255;48.716;9.124;2023-01-15T06:32:26;7.10;99.90
2489;DHT22;1255;48.716;9.124;2023-01-15T06:34:52;7.10;99.90
2489;DHT22;1255;48.716;9.124;2023-01-15T06:37:19;7.00;99.90
2489;DHT22;1255;48.716;9.124;2023-01-15T06:39:46;7.00;99.90
2489;DHT22;1255;48.716;9.124;2023-01-15T06:42:12;7.00;99.90
2489;DHT22;1255;48.716;9.124;2023-01-15T06:44:57;6.90;99.90
2489;DHT22;1255;48.716;9.124;2023-01-15T06:47:42;6.90;99.90
2489;DHT22;1255;48.716;9.124;2023-01-15T06:50:10;6.80;99.90
2489;DHT22;1255;48.716;9.124;2023-01-15T06:52:37;6.80;99.90
2489;DHT22;1255;48.716;9.124;2023-01-15T06:55:05;6.80;99.90
2489;DHT22;1255;48.716;9.124;2023-01-15T06:57:32;6.70;99.90
2489;DHT22;1255;48.716;9.124;2023-01-15T06:59:59;6.70;99.90
2489;DHT22;1255;48.716;9.124;2023-01-15T07:02:25;6.70;99.90
2489;DHT22;1255;48.716;9.124;2023-01-15T07:04:53;6.70;99.90
2489;DHT22;1255;48.716;9.124;2023-01-15T07:07:20;6.70;99.90
2489;DHT22;1255;48.716;9.124;2023-01-15T07:09:47;6.60;99.90
2489;DHT22;1255;48.716;9.124;2023-01-15T07:12:14;6.60;99.90
2489;DHT22;1255;48.716;9.124;2023-01-15T07:14:41;6.60;99.90
2489;DHT22;1255;48.716;9.124;2023-01-15T07:17:08;6.60;99.90
2489;DHT22;1255;48.716;9.124;2023-01-15T07:19:35;6.50;99.90
2489;DHT22;1255;48.716;9.124;2023-01-15T07:22:03;6.50;99.90
2489;DHT22;1255;48.716;9.124;2023-01-15T07:24:30;6.50;99.90
2489;DHT22;1255;48.716;9.124;2023-01-15T07:26:57;6.40;99.90
2489;DHT22;1255;48.716;9.124;2023-01-15T07:29:25;6.40;99.90
2489;DHT22;1255;48.716;9.124;2023-01-15T07:31:51;6.30;99.90
2489;DHT22;1255;48.716;9.124;2023-01-15T07:34:19;6.30;99.90
2489;DHT22;1255;48.716;9.124;2023-01-15T07:36:45;6.20;99.90
2489;DHT22;1255;48.716;9.124;2023-01-15T07:39:14;6.20;99.90
2489;DHT22;1255;48.716;9.124;2023-01-15T07:41:40;6.10;99.90
2489;DHT22;1255;48.716;9.124;2023-01-15T07:44:24;6.10;99.90
2489;DHT22;1255;48.716;9.124;2023-01-15T07:47:18;6.00;99.90
2489;DHT22;1255;48.716;9.124;2023-01-15T07:50:04;6.00;99.90
2489;DHT22;1255;48.716;9.124;2023-01-15T07:52:31;5.90;99.90
2489;DHT22;1255;48.716;9.124;2023-01-15T07:55:00;6.00;99.90
2489;DHT22;1255;48.716;9.124;2023-01-15T07:57:28;5.90;99.90
2489;DHT22;1255;48.716;9.124;2023-01-15T07:59:55;5.90;99.90
2489;DHT22;1255;48.716;9.124;2023-01-15T08:02:22;5.90;99.90
2489;DHT22;1255;48.716;9.124;2023-01-15T08:04:49;5.90;99.90
2489;DHT22;1255;48.716;9.124;2023-01-15T08:07:15;5.90;99.90
2489;DHT22;1255;48.716;9.124;2023-01-15T08:09:42;5.90;99.90
2489;DHT22;1255;48.716;9.124;2023-01-15T08:12:10;5.90;99.90
2489;DHT22;1255;48.716;9.124;2023-01-15T08:14:55;5.90;99.90
2489;DHT22;1255;48.716;9.124;2023-01-15T08:17:41;5.90;99.90
2489;DHT22;1255;48.716;9.124;2023-01-15T08:20:11;5.80;99.90
2489;DHT22;1255;48.716;9.124;2023-01-15T08:22:38;5.80;99.90
2489;DHT22;1255;48.716;9.124;2023-01-15T08:25:07;5.80;99.90
2489;DHT22;1255;48.716;9.124;2023-01-15T08:27:36;5.80;99.90
2489;DHT22;1255;48.716;9.124;2023-01-15T08:30:04;5.80;99.90
2489;DHT22;1255;48.716;9.124;2023-01-15T08:32:31;5.80;99.90
2489;DHT22;1255;48.716;9.124;2023-01-15T08:34:58;5.80;99.90
2489;DHT22;1255;48.716;9.124;2023-01-15T08:37:25;5.80;99.90
2489;DHT22;1255;48.716;9.124;2023-01-15T08:39:51;5.80;99.90
2489;DHT22;1255;48.716;9.124;2023-01-15T08:42:18;5.80;99.90
2489;DHT22;1255;48.716;9.124;2023-01-15T08:44:47;5.90;99.90
2489;DHT22;1255;48.716;9.124;2023-01-15T08:47:14;5.90;99.90
2489;DHT22;1255;48.716;9.124;2023-01-15T08:49:41;5.90;99.90
2489;DHT22;1255;48.716;9.124;2023-01-15T08:52:07;6.00;99.90
2489;DHT22;1255;48.716;9.124;2023-01-15T08:54:34;6.00;99.90
2489;DHT22;1255;48.716;9.124;2023-01-15T08:57:01;5.90;99.90
2489;DHT22;1255;48.716;9.124;2023-01-15T08:59:28;5.90;99.90
2489;DHT22;1255;48.716;9.124;2023-01-15T09:01:56;5.90;99.90
2489;DHT22;1255;48.716;9.124;2023-01-15T09:04:22;5.90;99.90
2489;DHT22;1255;48.716;9.124;2023-01-15T09:06:49;5.90;99.90
2489;DHT22;1255;48.716;9.124;2023-01-15T09:09:16;5.90;99.90
2489;DHT22;1255;48.716;9.124;2023-01-15T09:11:43;5.90;99.90
2489;DHT22;1255;48.716;9.124;2023-01-15T09:14:12;5.80;99.90
2489;DHT22;1255;48.716;9.124;2023-01-15T09:16:39;5.80;99.90
2489;DHT22;1255;48.716;9.124;2023-01-15T09:19:08;5.80;99.90
2489;DHT22;1255;48.716;9.124;2023-01-15T09:21:35;5.90;99.90
2489;DHT22;1255;48.716;9.124;2023-01-15T09:24:02;5.80;99.90
2489;DHT22;1255;48.716;9.124;2023-01-15T09:26:31;5.80;99.90
2489;DHT22;1255;48.716;9.124;2023-01-15T09:28:59;5.80;99.90
2489;DHT22;1255;48.716;9.124;2023-01-15T09:31:26;5.70;99.90
2489;DHT22;1255;48.716;9.124;2023-01-15T09:33:56;5.70;99.90
2489;DHT22;1255;48.716;9.124;2023-01-15T09:36:27;5.80;99.90
2489;DHT22;1255;48.716;9.124;2023-01-15T09:38:55;5.80;99.90
2489;DHT22;1255;48.716;9.124;2023-01-15T09:41:23;6.00;99.90
2489;DHT22;1255;48.716;9.124;2023-01-15T09:44:20;6.10;99.90
2489;DHT22;1255;48.716;9.124;2023-01-15T09:47:01;6.10;99.90
2489;DHT22;1255;48.716;9.124;2023-01-15T09:49:38;6.10;99.90
2489;DHT22;1255;48.716;9.124;2023-01-15T09:52:12;6.10;99.90
2489;DHT22;1255;48.716;9.124;2023-01-15T09:54:48;6.10;99.90
2489;DHT22;1255;48.716;9.124;2023-01-15T09:57:16;6.10;99.90
2489;DHT22;1255;48.716;9.124;2023-01-15T09:59:46;6.10;99.90
2489;DHT22;1255;48.716;9.124;2023-01-15T10:02:21;6.00;99.90
2489;DHT22;1255;48.716;9.124;2023-01-15T10:04:53;5.90;99.90
2489;DHT22;1255;48.716;9.124;2023-01-15T10:07:27;5.90;99.90
2489;DHT22;1255;48.716;9.124;2023-01-15T10:09:59;5.90;99.90
2489;DHT22;1255;48.716;9.124;2023-01-15T10:12:29;6.00;99.90
2489;DHT22;1255;48.716;9.124;2023-01-15T10:15:14;6.00;99.90
2489;DHT22;1255;48.716;9.124;2023-01-15T10:17:45;6.00;99.90
2489;DHT22;1255;48.716;9.124;2023-01-15T10:20:15;6.00;99.90
2489;DHT22;1255;48.716;9.124;2023-01-15T10:23:07;6.00;99.90
2489;DHT22;1255;48.716;9.124;2023-01-15T10:25:41;6.10;99.90
2489;DHT22;1255;48.716;9.124;2023-01-15T10:28:19;6.10;99.90
2489;DHT22;1255;48.716;9.124;2023-01-15T10:30:52;6.20;99.90
2489;DHT22;1255;48.716;9.124;2023-01-15T10:33:33;6.30;99.90
2489;DHT22;1255;48.716;9.124;2023-01-15T10:36:07;6.30;99.90
2489;DHT22;1255;48.716;9.124;2023-01-15T10:38:42;6.30;99.90
2489;DHT22;1255;48.716;9.124;2023-01-15T10:41:30;6.30;99.90
2489;DHT22;1255;48.716;9.124;2023-01-15T10:44:09;6.30;99.90
2489;DHT22;1255;48.716;9.124;2023-01-15T10:46:38;6.20;99.90
2489;DHT22;1255;48.716;9.124;2023-01-15T10:49:12;6.20;99.90
2489;DHT22;1255;48.716;9.124;2023-01-15T10:51:42;6.10;99.90
2489;DHT22;1255;48.716;9.124;2023-01-15T10:54:19;6.00;99.90
2489;DHT22;1255;48.716;9.124;2023-01-15T10:56:52;5.90;99.90
2489;DHT22;1255;48.716;9.124;2023-01-15T10:59:24;5.80;99.90
2489;DHT22;1255;48.716;9.124;2023-01-15T11:01:54;5.80;99.90
2489;DHT22;1255;48.716;9.124;2023-01-15T11:04:30;5.70;99.90
2489;DHT22;1255;48.716;9.124;2023-01-15T11:06:56;5.70;99.90
2489;DHT22;1255;48.716;9.124;2023-01-15T11:09:26;5.60;99.90
2489;DHT22;1255;48.716;9.124;2023-01-15T11:12:05;5.50;99.90
2489;DHT22;1255;48.716;9.124;2023-01-15T11:14:55;5.30;99.90
2489;DHT22;1255;48.716;9.124;2023-01-15T11:17:42;5.20;99.90
2489;DHT22;1255;48.716;9.124;2023-01-15T11:20:29;5.10;99.90
2489;DHT22;1255;48.716;9.124;2023-01-15T11:22:57;5.00;99.90
2489;DHT22;1255;48.716;9.124;2023-01-15T11:25:32;5.00;99.90
2489;DHT22;1255;48.716;9.124;2023-01-15T11:28:02;5.00;99.90
2489;DHT22;1255;48.716;9.124;2023-01-15T11:30:32;4.90;99.90
2489;DHT22;1255;48.716;9.124;2023-01-15T11:33:01;4.80;99.90
2489;DHT22;1255;48.716;9.124;2023-01-15T11:35:29;4.60;99.90
2489;DHT22;1255;48.716;9.124;2023-01-15T11:38:04;4.50;99.90
2489;DHT22;1255;48.716;9.124;2023-01-15T11:40:32;4.40;99.90
2489;DHT22;1255;48.716;9.124;2023-01-15T11:42:59;4.30;99.90
2489;DHT22;1255;48.716;9.124;2023-01-15T11:45:48;4.20;99.90
2489;DHT22;1255;48.716;9.124;2023-01-15T11:48:43;4.20;99.90
2489;DHT22;1255;48.716;9.124;2023-01-15T11:51:28;4.20;99.90
2489;DHT22;1255;48.716;9.124;2023-01-15T11:54:01;4.10;99.90
2489;DHT22;1255;48.716;9.124;2023-01-15T11:56:31;4.10;99.90
2489;DHT22;1255;48.716;9.124;2023-01-15T11:59:01;4.10;99.90
2489;DHT22;1255;48.716;9.124;2023-01-15T12:01:31;4.00;99.90
2489;DHT22;1255;48.716;9.124;2023-01-15T12:04:00;4.00;99.90
2489;DHT22;1255;48.716;9.124;2023-01-15T12:06:29;3.90;99.90
2489;DHT22;1255;48.716;9.124;2023-01-15T12:09:00;4.00;99.90
2489;DHT22;1255;48.716;9.124;2023-01-15T12:11:46;3.90;99.90
2489;DHT22;1255;48.716;9.124;2023-01-15T12:17:23;4.00;99.90
2489;DHT22;1255;48.716;9.124;2023-01-15T12:20:00;4.00;99.90
2489;DHT22;1255;48.716;9.124;2023-01-15T12:22:38;4.00;99.90
2489;DHT22;1255;48.716;9.124;2023-01-15T12:25:33;4.00;99.90
2489;DHT22;1255;48.716;9.124;2023-01-15T12:28:11;4.00;99.90
2489;DHT22;1255;48.716;9.124;2023-01-15T12:30:47;4.00;99.90
2489;DHT22;1255;48.716;9.124;2023-01-15T12:33:27;4.10;99.90
2489;DHT22;1255;48.716;9.124;2023-01-15T12:36:01;4.10;99.90
2489;DHT22;1255;48.716;9.124;2023-01-15T12:38:41;4.10;99.90
2489;DHT22;1255;48.716;9.124;2023-01-15T12:41:13;4.20;99.90
2489;DHT22;1255;48.716;9.124;2023-01-15T12:43:45;4.10;99.90
2489;DHT22;1255;48.716;9.124;2023-01-15T12:46:31;4.00;99.90
2489;DHT22;1255;48.716;9.124;2023-01-15T12:49:03;4.00;99.90
2489;DHT22;1255;48.716;9.124;2023-01-15T12:51:37;4.10;99.90
2489;DHT22;1255;48.716;9.124;2023-01-15T12:54:10;4.10;99.90
2489;DHT22;1255;48.716;9.124;2023-01-15T12:56:46;4.20;99.90
2489;DHT22;1255;48.716;9.124;2023-01-15T12:59:19;4.10;99.90
2489;DHT22;1255;48.716;9.124;2023-01-15T13:01:52;4.10;99.90
2489;DHT22;1255;48.716;9.124;2023-01-15T13:04:27;4.00;99.90
2489;DHT22;1255;48.716;9.124;2023-01-15T13:06:59;4.00;99.90
2489;DHT22;1255;48.716;9.124;2023-01-15T13:09:36;4.00;99.90
2489;DHT22;1255;48.716;9.124;2023-01-15T13:12:11;4.00;99.90
2489;DHT22;1255;48.716;9.124;2023-01-15T13:14:40;4.00;99.90
2489;DHT22;1255;48.716;9.124;2023-01-15T13:17:14;4.00;99.90
2489;DHT22;1255;48.716;9.124;2023-01-15T13:19:54;4.00;99.90
2489;DHT22;1255;48.716;9.124;2023-01-15T13:22:26;3.90;99.90
2489;DHT22;1255;48.716;9.124;2023-01-15T13:25:11;3.90;99.90
2489;DHT22;1255;48.716;9.124;2023-01-15T13:28:04;3.90;99.90
2489;DHT22;1255;48.716;9.124;2023-01-15T13:30:42;3.90;99.90
2489;DHT22;1255;48.716;9.124;2023-01-15T13:33:21;4.00;99.90
2489;DHT22;1255;48.716;9.124;2023-01-15T13:35:52;4.00;99.90
2489;DHT22;1255;48.716;9.124;2023-01-15T13:38:22;4.00;99.90
2489;DHT22;1255;48.716;9.124;2023-01-15T13:40:52;3.90;99.90
2489;DHT22;1255;48.716;9.124;2023-01-15T13:43:29;4.00;99.90
2489;DHT22;1255;48.716;9.124;2023-01-15T13:46:01;4.00;99.90
2489;DHT22;1255;48.716;9.124;2023-01-15T13:48:31;4.00;99.90
2489;DHT22;1255;48.716;9.124;2023-01-15T13:51:00;4.10;99.90
2489;DHT22;1255;48.716;9.124;2023-01-15T13:53:30;4.10;99.90
2489;DHT22;1255;48.716;9.124;2023-01-15T13:56:00;4.20;99.90
2489;DHT22;1255;48.716;9.124;2023-01-15T13:58:31;4.30;99.90
2489;DHT22;1255;48.716;9.124;2023-01-15T14:01:22;4.40;99.90
2489;DHT22;1255;48.716;9.124;2023-01-15T14:03:58;4.40;99.90
2489;DHT22;1255;48.716;9.124;2023-01-15T14:06:39;4.40;99.90
2489;DHT22;1255;48.716;9.124;2023-01-15T14:09:09;4.40;99.90
2489;DHT22;1255;48.716;9.124;2023-01-15T14:11:38;4.40;99.90
2489;DHT22;1255;48.716;9.124;2023-01-15T14:14:39;4.50;99.90
2489;DHT22;1255;48.716;9.124;2023-01-15T14:20:35;4.60;99.90
2489;DHT22;1255;48.716;9.124;2023-01-15T14:23:15;4.60;99.90
2489;DHT22;1255;48.716;9.124;2023-01-15T14:25:53;4.60;99.90
2489;DHT22;1255;48.716;9.124;2023-01-15T14:28:47;4.60;99.90
2489;DHT22;1255;48.716;9.124;2023-01-15T14:31:37;4.50;99.90
2489;DHT22;1255;48.716;9.124;2023-01-15T14:34:13;4.50;99.90
2489;DHT22;1255;48.716;9.124;2023-01-15T14:36:48;4.50;99.90
2489;DHT22;1255;48.716;9.124;2023-01-15T14:39:29;4.50;99.90
2489;DHT22;1255;48.716;9.124;2023-01-15T14:42:04;4.60;99.90
2489;DHT22;1255;48.716;9.124;2023-01-15T14:44:56;4.60;99.90
2489;DHT22;1255;48.716;9.124;2023-01-15T14:47:27;4.60;99.90
2489;DHT22;1255;48.716;9.124;2023-01-15T14:50:21;4.50;99.90
2489;DHT22;1255;48.716;9.124;2023-01-15T14:52:51;4.50;99.90
2489;DHT22;1255;48.716;9.124;2023-01-15T14:55:19;4.50;99.90
2489;DHT22;1255;48.716;9.124;2023-01-15T14:57:53;4.40;99.90
2489;DHT22;1255;48.716;9.124;2023-01-15T15:00:22;4.50;99.90
2489;DHT22;1255;48.716;9.124;2023-01-15T15:02:50;4.50;99.90
2489;DHT22;1255;48.716;9.124;2023-01-15T15:05:21;4.30;99.90
2489;DHT22;1255;48.716;9.124;2023-01-15T15:07:49;4.40;99.90
2489;DHT22;1255;48.716;9.124;2023-01-15T15:10:21;4.30;99.90
2489;DHT22;1255;48.716;9.124;2023-01-15T15:12:55;4.30;99.90
2489;DHT22;1255;48.716;9.124;2023-01-15T15:15:37;4.30;99.90
2489;DHT22;1255;48.716;9.124;2023-01-15T15:18:14;4.30;99.90
2489;DHT22;1255;48.716;9.124;2023-01-15T15:20:50;4.20;99.90
2489;DHT22;1255;48.716;9.124;2023-01-15T15:23:23;4.20;99.90
2489;DHT22;1255;48.716;9.124;2023-01-15T15:25:55;4.20;99.90
2489;DHT22;1255;48.716;9.124;2023-01-15T15:28:22;4.10;99.90
2489;DHT22;1255;48.716;9.124;2023-01-15T15:30:51;4.10;99.90
2489;DHT22;1255;48.716;9.124;2023-01-15T15:33:21;4.00;99.90
2489;DHT22;1255;48.716;9.124;2023-01-15T15:35:51;4.10;99.90
2489;DHT22;1255;48.716;9.124;2023-01-15T15:38:21;4.00;99.90
2489;DHT22;1255;48.716;9.124;2023-01-15T15:40:50;3.90;99.90
2489;DHT22;1255;48.716;9.124;2023-01-15T15:43:23;4.00;99.90
2489;DHT22;1255;48.716;9.124;2023-01-15T15:46:22;3.90;99.90
2489;DHT22;1255;48.716;9.124;2023-01-15T15:49:07;3.90;99.90
2489;DHT22;1255;48.716;9.124;2023-01-15T15:51:37;3.80;99.90
2489;DHT22;1255;48.716;9.124;2023-01-15T15:54:18;3.80;99.90
2489;DHT22;1255;48.716;9.124;2023-01-15T15:56:53;3.70;99.90
2489;DHT22;1255;48.716;9.124;2023-01-15T15:59:30;3.70;99.90
2489;DHT22;1255;48.716;9.124;2023-01-15T16:02:05;3.70;99.90
2489;DHT22;1255;48.716;9.124;2023-01-15T16:04:33;3.70;99.90
2489;DHT22;1255;48.716;9.124;2023-01-15T16:07:11;3.70;99.90
2489;DHT22;1255;48.716;9.124;2023-01-15T16:09:38;3.70;99.90
2489;DHT22;1255;48.716;9.124;2023-01-15T16:12:09;3.70;99.90
2489;DHT22;1255;48.716;9.124;2023-01-15T16:14:38;3.60;99.90
2489;DHT22;1255;48.716;9.124;2023-01-15T16:17:08;3.50;99.90
2489;DHT22;1255;48.716;9.124;2023-01-15T16:19:36;3.50;99.90
2489;DHT22;1255;48.716;9.124;2023-01-15T16:22:06;3.50;99.90
2489;DHT22;1255;48.716;9.124;2023-01-15T16:24:34;3.40;99.90
2489;DHT22;1255;48.716;9.124;2023-01-15T16:27:04;3.40;99.90
2489;DHT22;1255;48.716;9.124;2023-01-15T16:29:34;3.40;99.90
2489;DHT22;1255;48.716;9.124;2023-01-15T16:32:09;3.40;99.90
2489;DHT22;1255;48.716;9.124;2023-01-15T16:34:37;3.30;99.90
2489;DHT22;1255;48.716;9.124;2023-01-15T16:37:22;3.30;99.90
2489;DHT22;1255;48.716;9.124;2023-01-15T16:39:50;3.30;99.90
2489;DHT22;1255;48.716;9.124;2023-01-15T16:42:25;3.20;99.90
2489;DHT22;1255;48.716;9.124;2023-01-15T16:44:54;3.20;99.90
2489;DHT22;1255;48.716;9.124;2023-01-15T16:47:24;3.30;99.90
2489;DHT22;1255;48.716;9.124;2023-01-15T16:49:52;3.30;99.90